Time;durP1;ratioP1;P1;durP2;ratioP2;P2;SDS_P1;SDS_P2;PMS_P1;PMS_P2;Temp;Humidity;BMP_temperature;BMP_pressure;BME280_temperature;BME280_humidity;BME280_pressure;Samples;Min_cycle;Max_cycle;Signal;HPM_P1;HPM_P2
2023/05/26 00:01:32;;;;;;;6.27;5.67;;;14.80;9.40;;;;;;5097379;28;20180;-55
2023/05/26 00:03:58;;;;;;;7.83;6.40;;;14.80;5.80;;;;;;5098235;28;20175;-56
2023/05/26 00:06:24;;;;;;;10.97;6.63;;;14.70;6.50;;;;;;5097839;28;20705;-56
2023/05/26 00:08:50;;;;;;;8.60;6.20;;;14.80;5.70;;;;;;5097643;28;20426;-54
2023/05/26 00:11:16;;;;;;;7.17;6.00;;;14.70;6.80;;;;;;5097799;28;20451;-54
2023/05/26 00:13:42;;;;;;;11.43;6.47;;;14.70;25.90;;;;;;5097939;28;20203;-56
2023/05/26 00:16:08;;;;;;;6.63;5.93;;;14.60;42.00;;;;;;5097914;28;20426;-56
2023/05/26 00:18:34;;;;;;;6.90;6.00;;;14.60;41.60;;;;;;5096723;28;20479;-56
2023/05/26 00:21:00;;;;;;;6.80;5.90;;;14.60;50.90;;;;;;5095258;28;20458;-57
2023/05/26 00:23:26;;;;;;;7.37;6.07;;;14.60;57.60;;;;;;5097789;28;20187;-55
2023/05/26 00:25:52;;;;;;;7.73;6.47;;;14.50;81.50;;;;;;5080026;28;20418;-56
2023/05/26 00:28:18;;;;;;;7.10;6.10;;;14.50;84.70;;;;;;5096969;28;20488;-53
2023/05/26 00:30:43;;;;;;;7.00;6.30;;;14.50;90.90;;;;;;5097398;28;20798;-56
2023/05/26 00:33:10;;;;;;;7.70;6.20;;;14.40;99.20;;;;;;5097827;28;20212;-54
2023/05/26 00:35:37;;;;;;;9.33;6.30;;;14.40;99.90;;;;;;5098045;28;20407;-55
2023/05/26 00:38:02;;;;;;;7.93;6.70;;;14.40;99.90;;;;;;5098059;28;20680;-55
2023/05/26 00:40:28;;;;;;;7.80;6.30;;;14.40;99.90;;;;;;5097471;28;20474;-52
2023/05/26 00:42:53;;;;;;;8.60;6.17;;;14.30;99.90;;;;;;5097935;28;20635;-52
2023/05/26 00:45:19;;;;;;;8.50;6.47;;;14.30;99.90;;;;;;5098122;28;20566;-54
2023/05/26 00:47:44;;;;;;;11.70;6.43;;;14.30;99.90;;;;;;5097399;28;20226;-56
2023/05/26 00:50:12;;;;;;;7.17;6.00;;;14.40;99.90;;;;;;5097802;28;20540;-57
2023/05/26 00:52:38;;;;;;;8.43;6.10;;;14.40;99.90;;;;;;5097878;28;20189;-54
2023/05/26 00:55:06;;;;;;;8.17;6.03;;;14.40;99.90;;;;;;5079329;28;20748;-57
2023/05/26 00:57:33;;;;;;;8.30;6.30;;;14.40;99.90;;;;;;5097718;28;20693;-52
2023/05/26 00:59:59;;;;;;;7.20;5.97;;;14.40;99.90;;;;;;5097281;28;20527;-55
2023/05/26 01:02:26;;;;;;;7.17;5.87;;;14.40;99.90;;;;;;5097419;28;20616;-53
2023/05/26 01:04:55;;;;;;;9.07;6.10;;;14.40;99.90;;;;;;5096299;28;20749;-55
2023/05/26 01:07:21;;;;;;;6.43;5.63;;;14.40;99.90;;;;;;5097283;28;20499;-55
2023/05/26 01:09:48;;;;;;;9.00;6.20;;;14.30;99.90;;;;;;5097245;28;20422;-53
2023/05/26 01:12:20;;;;;;;7.97;5.73;;;14.30;99.90;;;;;;5079235;28;20582;-56
2023/05/26 01:15:20;;;;;;;8.30;6.60;;;14.30;99.90;;;;;;5079515;28;20421;-56
2023/05/26 01:17:52;;;;;;;8.00;6.50;;;14.30;99.90;;;;;;5064229;28;20832;-57
2023/05/26 01:20:22;;;;;;;9.47;6.90;;;14.20;99.90;;;;;;5079213;28;20462;-55
2023/05/26 01:22:50;;;;;;;11.73;6.73;;;14.30;99.90;;;;;;5078535;28;20446;-57
2023/05/26 01:25:18;;;;;;;8.27;6.07;;;14.20;99.90;;;;;;5095780;28;20560;-55
2023/05/26 01:28:06;;;;;;;13.50;6.63;;;14.20;99.90;;;;;;5096776;28;20507;-57
2023/05/26 01:30:33;;;;;;;7.00;5.63;;;14.20;99.90;;;;;;5080882;28;20554;-55
2023/05/26 01:32:59;;;;;;;9.67;5.80;;;14.20;99.90;;;;;;5101063;28;20418;-56
2023/05/26 01:35:25;;;;;;;6.93;6.23;;;14.20;99.90;;;;;;5101355;28;20417;-53
2023/05/26 01:37:50;;;;;;;7.30;6.17;;;14.20;99.90;;;;;;5101205;28;20176;-57
2023/05/26 01:40:16;;;;;;;6.37;5.77;;;14.20;99.90;;;;;;5083425;28;20212;-54
2023/05/26 01:42:45;;;;;;;7.23;6.20;;;14.20;99.90;;;;;;5083433;28;20177;-54
2023/05/26 01:45:14;;;;;;;8.63;6.83;;;14.20;99.90;;;;;;5083135;28;20177;-54
2023/05/26 01:47:41;;;;;;;11.50;6.80;;;14.10;99.90;;;;;;5082534;28;20406;-57
2023/05/26 01:50:08;;;;;;;9.43;7.10;;;14.10;99.90;;;;;;5101039;28;20427;-53
2023/05/26 01:52:34;;;;;;;12.13;5.83;;;14.10;99.90;;;;;;5082973;28;20504;-58
2023/05/26 01:55:03;;;;;;;8.57;6.50;;;14.10;99.90;;;;;;5101060;28;20422;-54
2023/05/26 01:57:29;;;;;;;8.33;6.47;;;14.10;99.90;;;;;;5100776;28;20919;-57
2023/05/26 01:59:55;;;;;;;7.93;6.40;;;14.10;99.90;;;;;;5082548;28;20808;-56
2023/05/26 02:02:21;;;;;;;8.00;6.53;;;14.10;99.90;;;;;;5100606;28;20465;-54
2023/05/26 02:04:46;;;;;;;9.83;6.43;;;14.10;99.90;;;;;;5101194;28;20828;-56
2023/05/26 02:07:12;;;;;;;8.90;7.00;;;14.10;99.90;;;;;;5100289;28;20181;-57
2023/05/26 02:09:37;;;;;;;9.63;7.60;;;14.10;99.90;;;;;;5100547;28;20192;-56
2023/05/26 02:12:06;;;;;;;7.53;6.30;;;14.10;99.90;;;;;;5100508;28;20257;-55
2023/05/26 02:14:31;;;;;;;9.40;6.83;;;14.10;99.90;;;;;;5100649;28;20325;-57
2023/05/26 02:16:57;;;;;;;8.80;6.53;;;14.10;99.90;;;;;;5100661;28;20521;-57
2023/05/26 02:19:25;;;;;;;7.10;6.40;;;14.20;99.90;;;;;;5099882;28;20273;-56
2023/05/26 02:21:50;;;;;;;8.00;7.00;;;14.20;99.90;;;;;;5099661;28;20450;-54
2023/05/26 02:24:16;;;;;;;9.10;7.00;;;14.20;99.90;;;;;;5098247;28;20454;-57
2023/05/26 02:26:42;;;;;;;11.13;7.30;;;14.20;99.90;;;;;;5079633;28;20539;-54
2023/05/26 02:29:07;;;;;;;8.60;6.83;;;14.20;99.90;;;;;;5098277;28;20228;-55
2023/05/26 02:31:34;;;;;;;6.60;6.00;;;14.20;99.90;;;;;;5118641;28;20268;-55
2023/05/26 02:34:01;;;;;;;8.87;6.43;;;14.20;99.90;;;;;;5118599;28;20199;-57
2023/05/26 02:36:27;;;;;;;7.77;6.83;;;14.20;99.90;;;;;;5118171;28;20424;-54
2023/05/26 02:38:52;;;;;;;8.23;6.57;;;14.20;99.90;;;;;;5120114;28;20815;-57
2023/05/26 02:41:18;;;;;;;6.73;6.13;;;14.20;99.90;;;;;;5119331;28;20199;-54
2023/05/26 02:43:43;;;;;;;12.50;6.90;;;14.20;99.90;;;;;;5120287;28;20449;-57
2023/05/26 02:46:09;;;;;;;6.60;6.00;;;14.20;99.90;;;;;;5120596;28;20215;-55
2023/05/26 02:48:35;;;;;;;8.60;7.70;;;14.10;99.90;;;;;;5120109;28;20446;-58
2023/05/26 02:51:01;;;;;;;11.27;6.70;;;14.10;99.90;;;;;;5119752;28;20209;-55
2023/05/26 02:53:26;;;;;;;8.20;6.87;;;14.10;1.00;;;;;;5119945;28;20414;-58
2023/05/26 02:55:52;;;;;;;7.00;6.33;;;14.00;1.00;;;;;;5119885;28;20183;-56
2023/05/26 02:58:17;;;;;;;8.90;6.70;;;14.00;1.00;;;;;;5120081;28;20245;-56
2023/05/26 03:00:43;;;;;;;10.50;6.80;;;13.90;1.00;;;;;;5133904;27;20277;-56
2023/05/26 03:03:09;;;;;;;9.57;6.20;;;13.90;1.00;;;;;;5140512;27;20190;-57
2023/05/26 03:05:34;;;;;;;10.50;7.77;;;13.90;1.00;;;;;;5131390;27;20191;-57
2023/05/26 03:08:00;;;;;;;10.47;7.63;;;13.90;1.00;;;;;;5128076;27;20243;-56
2023/05/26 03:10:26;;;;;;;7.70;6.67;;;13.90;1.00;;;;;;5139991;27;20198;-56
2023/05/26 03:12:52;;;;;;;8.07;7.27;;;13.90;1.00;;;;;;5139728;27;20175;-55
2023/05/26 03:15:18;;;;;;;8.90;7.43;;;13.90;1.00;;;;;;5139892;27;20441;-55
2023/05/26 03:17:43;;;;;;;8.53;7.17;;;13.90;1.00;;;;;;5130808;27;20444;-54
2023/05/26 03:20:09;;;;;;;7.93;6.70;;;13.90;1.00;;;;;;5120184;27;20553;-56
2023/05/26 03:22:35;;;;;;;8.83;7.50;;;13.80;1.00;;;;;;5139527;27;20587;-56
2023/05/26 03:25:01;;;;;;;7.20;6.50;;;13.80;1.00;;;;;;5139940;27;20671;-58
2023/05/26 03:27:26;;;;;;;9.17;6.77;;;13.80;1.00;;;;;;5139319;27;20251;-56
2023/05/26 03:29:52;;;;;;;8.30;7.50;;;13.80;1.00;;;;;;5139742;27;20175;-55
2023/05/26 03:32:17;;;;;;;12.50;7.73;;;13.80;1.00;;;;;;5138418;27;20215;-56
2023/05/26 03:34:44;;;;;;;7.83;6.80;;;13.90;1.00;;;;;;5139224;27;20170;-56
2023/05/26 03:37:11;;;;;;;7.67;6.53;;;13.90;1.00;;;;;;5138732;27;20176;-53
2023/05/26 03:39:37;;;;;;;8.20;7.40;;;13.90;1.00;;;;;;5137563;27;20456;-56
2023/05/26 03:42:02;;;;;;;8.77;6.73;;;13.90;1.00;;;;;;5137414;27;20435;-54
2023/05/26 03:44:28;;;;;;;8.73;7.27;;;14.00;1.00;;;;;;5138004;27;20183;-54
2023/05/26 03:46:53;;;;;;;8.67;7.20;;;14.00;1.00;;;;;;5137843;27;20262;-54
2023/05/26 03:49:19;;;;;;;7.57;6.53;;;14.00;1.00;;;;;;5137962;27;20196;-56
2023/05/26 03:51:45;;;;;;;7.67;6.77;;;13.90;1.00;;;;;;5136559;27;20187;-53
2023/05/26 03:54:11;;;;;;;9.23;7.03;;;13.90;1.00;;;;;;5134385;27;20424;-57
2023/05/26 03:56:36;;;;;;;7.40;6.70;;;13.90;1.00;;;;;;5137005;27;20171;-56
2023/05/26 03:59:02;;;;;;;9.83;7.10;;;14.00;1.00;;;;;;5138441;27;20178;-56
2023/05/26 04:01:28;;;;;;;8.03;6.90;;;14.00;1.00;;;;;;5137813;27;20413;-56
2023/05/26 04:03:54;;;;;;;7.77;6.97;;;14.00;1.00;;;;;;5138628;27;20274;-55
2023/05/26 04:06:20;;;;;;;7.37;6.60;;;14.00;1.00;;;;;;5137603;27;20554;-56
2023/05/26 04:08:48;;;;;;;9.30;7.47;;;14.10;1.00;;;;;;5136919;27;20195;-56
2023/05/26 04:11:14;;;;;;;10.60;7.50;;;14.10;1.00;;;;;;5137982;27;20194;-55
2023/05/26 04:13:40;;;;;;;9.77;7.33;;;14.10;1.00;;;;;;5120240;27;20405;-55
2023/05/26 04:16:06;;;;;;;8.63;7.60;;;14.10;1.00;;;;;;5138485;27;20443;-57
2023/05/26 04:18:32;;;;;;;9.77;7.37;;;14.20;1.00;;;;;;5137239;27;20205;-53
2023/05/26 04:20:58;;;;;;;9.10;7.30;;;14.20;1.00;;;;;;5135844;27;20475;-56
2023/05/26 04:23:24;;;;;;;9.63;7.73;;;14.20;1.00;;;;;;5137644;27;20440;-54
2023/05/26 04:25:50;;;;;;;7.30;6.60;;;14.20;1.00;;;;;;5136333;27;20167;-55
2023/05/26 04:28:15;;;;;;;9.50;8.00;;;14.20;1.00;;;;;;5136819;27;20167;-55
2023/05/26 04:30:42;;;;;;;8.70;7.80;;;14.20;1.00;;;;;;5136848;27;20915;-52
2023/05/26 04:33:09;;;;;;;8.20;7.20;;;14.20;1.00;;;;;;5136128;27;20247;-54
2023/05/26 04:35:35;;;;;;;8.47;7.63;;;14.20;1.00;;;;;;5137186;27;20420;-57
2023/05/26 04:38:00;;;;;;;12.03;7.30;;;14.20;1.00;;;;;;5137326;27;20423;-55
2023/05/26 04:40:26;;;;;;;14.07;8.83;;;14.20;1.00;;;;;;5135875;27;20198;-53
2023/05/26 04:42:51;;;;;;;10.60;7.33;;;14.20;1.00;;;;;;5136053;27;20461;-55
2023/05/26 04:45:18;;;;;;;9.07;8.13;;;14.30;1.00;;;;;;5134276;27;20171;-55
2023/05/26 04:47:44;;;;;;;9.20;8.30;;;14.30;1.00;;;;;;5136736;27;20587;-56
2023/05/26 04:50:16;;;;;;;8.37;7.50;;;14.30;1.00;;;;;;5135651;27;20846;-55
2023/05/26 04:52:42;;;;;;;10.63;7.80;;;14.40;1.00;;;;;;5136399;27;20408;-58
2023/05/26 04:55:08;;;;;;;9.80;8.10;;;14.40;1.00;;;;;;5136384;27;20427;-55
2023/05/26 04:57:34;;;;;;;10.47;7.63;;;14.50;1.00;;;;;;5135616;27;20524;-56
2023/05/26 05:00:00;;;;;;;8.70;7.80;;;14.50;1.00;;;;;;5134259;27;20882;-56
2023/05/26 05:02:26;;;;;;;9.37;7.77;;;14.60;1.00;;;;;;5135107;27;20179;-54
2023/05/26 05:04:52;;;;;;;9.97;8.40;;;14.70;1.00;;;;;;5136453;27;20420;-56
2023/05/26 05:07:18;;;;;;;9.77;7.80;;;14.80;1.00;;;;;;5139090;27;20227;-58
2023/05/26 05:09:45;;;;;;;8.70;7.80;;;14.80;1.00;;;;;;5139129;27;20492;-57
2023/05/26 05:12:11;;;;;;;9.03;8.13;;;14.90;1.00;;;;;;5136109;27;20515;-55
2023/05/26 05:14:36;;;;;;;9.90;8.43;;;14.90;1.00;;;;;;5136929;27;20573;-55
2023/05/26 05:17:02;;;;;;;8.77;7.60;;;15.00;99.90;;;;;;5135792;27;20163;-54
2023/05/26 05:19:28;;;;;;;10.47;7.77;;;15.00;99.90;;;;;;5132185;27;20423;-55
2023/05/26 05:21:54;;;;;;;9.00;7.50;;;15.00;99.90;;;;;;5133029;27;20240;-54
2023/05/26 05:24:20;;;;;;;9.93;8.63;;;15.00;99.90;;;;;;5137015;27;20426;-55
2023/05/26 05:26:45;;;;;;;13.10;8.40;;;15.10;99.90;;;;;;5138773;27;20567;-56
2023/05/26 05:29:11;;;;;;;10.97;7.77;;;15.10;99.90;;;;;;5135493;27;20232;-55
2023/05/26 05:31:36;;;;;;;12.93;8.70;;;15.10;99.90;;;;;;5135444;27;20182;-55
2023/05/26 05:34:02;;;;;;;11.10;8.00;;;15.20;99.90;;;;;;5137195;27;20180;-53
2023/05/26 05:36:28;;;;;;;9.63;7.77;;;15.30;99.90;;;;;;5139347;27;20201;-57
2023/05/26 05:38:54;;;;;;;15.03;8.50;;;15.30;99.90;;;;;;5137675;27;20319;-53
2023/05/26 05:41:20;;;;;;;9.53;8.43;;;15.40;99.90;;;;;;5137293;27;20559;-55
2023/05/26 05:43:45;;;;;;;11.27;8.80;;;15.50;99.90;;;;;;5136559;27;20175;-52
2023/05/26 05:46:11;;;;;;;10.83;8.97;;;15.70;99.90;;;;;;5136553;27;20368;-55
2023/05/26 05:48:39;;;;;;;11.03;8.70;;;15.70;99.90;;;;;;5136851;27;20493;-54
2023/05/26 05:51:05;;;;;;;8.30;7.50;;;15.80;99.90;;;;;;5137317;27;20189;-55
2023/05/26 05:53:30;;;;;;;10.90;7.83;;;15.80;99.90;;;;;;5136204;27;20436;-54
2023/05/26 05:55:56;;;;;;;9.40;8.47;;;15.90;99.90;;;;;;5119790;27;20561;-56
2023/05/26 05:58:21;;;;;;;10.87;8.67;;;16.00;99.90;;;;;;5136293;27;20181;-57
2023/05/26 06:00:47;;;;;;;9.27;8.03;;;16.00;99.90;;;;;;5137278;27;20337;-61
2023/05/26 06:03:13;;;;;;;12.77;7.53;;;16.20;99.90;;;;;;5139194;27;20193;-55
2023/05/26 06:05:41;;;;;;;9.33;7.87;;;16.30;99.90;;;;;;5138091;27;20683;-52
2023/05/26 06:08:06;;;;;;;10.23;8.40;;;16.50;99.40;;;;;;5137257;27;20414;-55
2023/05/26 06:10:32;;;;;;;10.80;7.43;;;16.60;96.70;;;;;;5134662;27;20473;-54
2023/05/26 06:12:57;;;;;;;9.60;8.27;;;16.80;95.50;;;;;;5116977;27;20204;-54
2023/05/26 06:15:23;;;;;;;9.30;8.43;;;17.00;69.70;;;;;;5134794;27;20220;-58
2023/05/26 06:17:49;;;;;;;10.27;8.17;;;17.10;48.70;;;;;;5134843;27;20554;-57
2023/05/26 06:20:15;;;;;;;8.73;7.90;;;17.20;34.10;;;;;;5137228;27;20596;-56
2023/05/26 06:22:41;;;;;;;13.73;10.23;;;17.30;13.80;;;;;;5138311;27;20705;-54
2023/05/26 06:25:07;;;;;;;9.23;8.30;;;17.40;1.00;;;;;;5119575;27;20176;-56
2023/05/26 06:27:32;;;;;;;14.03;8.90;;;17.50;1.00;;;;;;5139046;27;20818;-54
2023/05/26 06:29:58;;;;;;;9.80;7.67;;;17.70;1.00;;;;;;5139402;27;20719;-56
2023/05/26 06:32:24;;;;;;;10.77;8.13;;;17.90;1.00;;;;;;5137048;27;20254;-57
2023/05/26 06:34:49;;;;;;;9.63;8.03;;;17.90;1.00;;;;;;5139238;27;20629;-57
2023/05/26 06:37:15;;;;;;;10.80;8.40;;;18.00;1.00;;;;;;5137959;27;20431;-57
2023/05/26 06:39:40;;;;;;;20.60;10.33;;;18.10;1.00;;;;;;5138650;27;20297;-56
2023/05/26 06:42:06;;;;;;;14.23;9.40;;;18.10;1.00;;;;;;5137895;27;20269;-53
2023/05/26 06:44:35;;;;;;;10.00;8.67;;;18.20;1.00;;;;;;5139526;27;20175;-55
2023/05/26 06:47:00;;;;;;;10.87;8.63;;;18.30;1.00;;;;;;5137161;27;20470;-56
2023/05/26 06:49:26;;;;;;;8.53;7.70;;;18.40;1.00;;;;;;5134750;27;20429;-54
2023/05/26 06:51:52;;;;;;;9.97;8.27;;;18.60;1.00;;;;;;5133992;27;20239;-54
2023/05/26 06:54:17;;;;;;;9.87;8.47;;;18.80;1.00;;;;;;5136833;27;20435;-56
2023/05/26 06:56:43;;;;;;;9.87;8.40;;;18.90;1.00;;;;;;5135403;27;20266;-54
2023/05/26 06:59:09;;;;;;;9.73;7.63;;;19.00;1.00;;;;;;5138110;27;20230;-55
2023/05/26 07:01:34;;;;;;;12.00;8.90;;;19.10;1.00;;;;;;5119095;27;20183;-50
2023/05/26 07:04:00;;;;;;;10.53;9.43;;;19.20;1.00;;;;;;5139435;27;20180;-54
2023/05/26 07:06:25;;;;;;;10.40;8.33;;;19.30;1.00;;;;;;5138100;27;20196;-54
2023/05/26 07:08:51;;;;;;;10.60;8.77;;;19.40;1.00;;;;;;5138432;27;20171;-52
2023/05/26 07:11:17;;;;;;;9.67;8.67;;;19.50;1.00;;;;;;5137441;27;20167;-51
2023/05/26 07:13:46;;;;;;;11.00;8.23;;;19.70;1.00;;;;;;5136764;27;20285;-52
2023/05/26 07:16:12;;;;;;;10.27;8.20;;;19.90;1.00;;;;;;5136716;27;20210;-55
2023/05/26 07:18:38;;;;;;;10.97;8.27;;;20.10;1.00;;;;;;5135828;27;20440;-55
2023/05/26 07:21:03;;;;;;;9.63;8.80;;;20.40;1.00;;;;;;5118265;27;20206;-52
2023/05/26 07:23:29;;;;;;;9.77;8.73;;;20.50;1.00;;;;;;5136957;27;20315;-55
2023/05/26 07:25:55;;;;;;;10.83;9.40;;;20.50;1.00;;;;;;5119788;27;20518;-55
2023/05/26 07:28:20;;;;;;;9.60;8.63;;;20.50;1.00;;;;;;5137075;27;20428;-54
2023/05/26 07:30:46;;;;;;;10.33;8.53;;;20.50;1.00;;;;;;5135874;27;20241;-52
2023/05/26 07:33:11;;;;;;;9.40;8.40;;;20.60;1.00;;;;;;5135021;27;20186;-54
2023/05/26 07:35:37;;;;;;;10.00;9.00;;;20.80;1.00;;;;;;5135115;27;20495;-55
2023/05/26 07:38:03;;;;;;;11.90;8.50;;;21.10;1.00;;;;;;5132124;27;20576;-55
2023/05/26 07:40:34;;;;;;;10.43;8.37;;;21.20;1.00;;;;;;5131036;27;20651;-53
2023/05/26 07:43:00;;;;;;;13.97;9.73;;;21.30;1.00;;;;;;5132752;27;20186;-53
2023/05/26 07:45:25;;;;;;;9.87;8.30;;;21.40;1.00;;;;;;5133290;27;20421;-54
2023/05/26 07:47:51;;;;;;;13.13;9.43;;;21.60;1.00;;;;;;5134112;27;20409;-55
2023/05/26 07:50:17;;;;;;;9.90;9.00;;;21.80;1.00;;;;;;5135408;27;20193;-53
2023/05/26 07:52:42;;;;;;;8.77;7.60;;;21.90;1.00;;;;;;5115515;27;20562;-56
2023/05/26 07:55:08;;;;;;;9.17;7.80;;;22.10;1.00;;;;;;5132438;27;20179;-53
2023/05/26 07:57:33;;;;;;;9.67;7.87;;;22.30;1.00;;;;;;5133692;27;20408;-54
2023/05/26 07:59:59;;;;;;;13.83;9.87;;;22.40;1.00;;;;;;5134125;27;20265;-51
2023/05/26 08:02:25;;;;;;;10.00;7.97;;;22.50;1.00;;;;;;5135229;27;20179;-54
2023/05/26 08:04:50;;;;;;;8.13;7.43;;;22.60;1.00;;;;;;5117458;27;20423;-54
2023/05/26 08:07:16;;;;;;;9.40;7.83;;;22.90;1.00;;;;;;5135901;27;20186;-55
2023/05/26 08:09:42;;;;;;;9.27;7.63;;;23.20;1.00;;;;;;5133715;27;20170;-53
2023/05/26 08:12:07;;;;;;;9.90;8.87;;;23.50;1.00;;;;;;5134588;27;20618;-54
2023/05/26 08:14:33;;;;;;;8.93;7.17;;;23.60;1.00;;;;;;5133815;27;20246;-51
2023/05/26 08:16:59;;;;;;;8.13;7.33;;;23.70;1.00;;;;;;5136330;27;20688;-52
2023/05/26 08:19:24;;;;;;;9.33;7.70;;;23.90;1.00;;;;;;5134237;27;20421;-51
2023/05/26 08:21:50;;;;;;;9.73;7.60;;;24.10;1.00;;;;;;5135819;27;20220;-51
2023/05/26 08:24:15;;;;;;;8.17;7.37;;;24.40;1.00;;;;;;5136258;27;20171;-53
2023/05/26 08:26:41;;;;;;;8.77;7.73;;;24.50;1.00;;;;;;5136693;27;20248;-53
2023/05/26 08:29:09;;;;;;;9.43;7.87;;;24.50;1.00;;;;;;5136877;27;20218;-53
2023/05/26 08:31:35;;;;;;;11.07;9.10;;;24.60;1.00;;;;;;5135754;27;20167;-50
2023/05/26 08:34:01;;;;;;;9.20;8.30;;;24.80;1.00;;;;;;5137419;27;20424;-51
2023/05/26 08:36:26;;;;;;;8.60;7.63;;;24.80;1.00;;;;;;5135948;27;20253;-51
2023/05/26 08:38:52;;;;;;;9.30;7.57;;;24.90;1.00;;;;;;5117507;28;20460;-54
2023/05/26 08:41:18;;;;;;;11.13;8.30;;;25.10;1.00;;;;;;5134952;27;20634;-52
2023/05/26 08:43:45;;;;;;;8.63;7.27;;;25.20;1.00;;;;;;5118167;28;20197;-50
2023/05/26 08:46:12;;;;;;;9.33;7.77;;;25.30;1.00;;;;;;5135559;28;20492;-50
2023/05/26 08:48:39;;;;;;;9.57;8.40;;;25.40;1.00;;;;;;5134812;28;20473;-51
2023/05/26 08:51:08;;;;;;;9.37;8.47;;;25.50;1.00;;;;;;5135544;27;20730;-54
2023/05/26 08:53:33;;;;;;;12.27;8.57;;;25.50;1.00;;;;;;5134584;27;20424;-51
2023/05/26 08:56:00;;;;;;;9.83;8.00;;;25.60;1.00;;;;;;5133170;27;20475;-53
2023/05/26 08:58:27;;;;;;;11.10;8.37;;;25.70;1.00;;;;;;5133332;27;20171;-52
2023/05/26 09:00:53;;;;;;;9.20;8.30;;;25.90;1.00;;;;;;5111056;28;20569;-54
2023/05/26 09:03:19;;;;;;;9.07;8.23;;;25.90;1.00;;;;;;5111329;28;20411;-52
2023/05/26 09:05:45;;;;;;;8.77;7.97;;;26.00;1.00;;;;;;5112017;28;20389;-51
2023/05/26 09:08:14;;;;;;;9.27;8.00;;;26.20;1.00;;;;;;5111096;28;20211;-52
2023/05/26 09:10:40;;;;;;;8.57;7.77;;;26.30;1.00;;;;;;5114198;28;20429;-50
2023/05/26 09:13:10;;;;;;;9.03;8.10;;;26.30;1.00;;;;;;5114220;28;20411;-55
2023/05/26 09:15:37;;;;;;;9.00;7.47;;;26.60;1.00;;;;;;5115767;28;20414;-52
2023/05/26 09:18:07;;;;;;;9.80;8.77;;;27.00;1.00;;;;;;5115099;28;20939;-54
2023/05/26 09:20:34;;;;;;;9.83;7.30;;;27.20;1.00;;;;;;5114444;28;20650;-53
2023/05/26 09:22:59;;;;;;;8.23;7.53;;;27.40;1.00;;;;;;5115205;28;20426;-54
2023/05/26 09:25:30;;;;;;;11.70;8.73;;;27.70;1.00;;;;;;5113369;28;20436;-52
2023/05/26 09:28:01;;;;;;;8.47;7.57;;;28.00;1.00;;;;;;5113077;28;20164;-51
2023/05/26 09:30:37;;;;;;;9.30;8.30;;;28.20;1.00;;;;;;5093760;28;20434;-51
2023/05/26 09:33:08;;;;;;;10.07;8.60;;;28.30;1.00;;;;;;5113648;28;20399;-54
2023/05/26 09:35:41;;;;;;;8.17;7.37;;;28.50;1.00;;;;;;5112680;28;20433;-51
2023/05/26 09:38:11;;;;;;;8.50;7.70;;;28.20;1.00;;;;;;5111546;28;20508;-52
2023/05/26 09:40:45;;;;;;;10.07;8.40;;;28.20;1.00;;;;;;5113484;28;21126;-51
2023/05/26 09:43:11;;;;;;;10.67;8.50;;;28.10;1.00;;;;;;5111808;28;20750;-51
2023/05/26 09:45:38;;;;;;;10.90;8.70;;;28.30;1.00;;;;;;5113493;28;20425;-54
2023/05/26 09:48:05;;;;;;;8.60;7.80;;;28.30;1.00;;;;;;5111576;28;20417;-51
2023/05/26 09:50:34;;;;;;;8.80;7.90;;;28.20;1.00;;;;;;5109811;28;20447;-51
2023/05/26 09:53:02;;;;;;;8.90;8.10;;;28.30;1.00;;;;;;5111381;28;20685;-52
2023/05/26 09:55:29;;;;;;;8.30;7.50;;;28.40;1.00;;;;;;5115417;28;20539;-54
2023/05/26 09:58:01;;;;;;;8.27;7.30;;;28.60;1.00;;;;;;5097907;28;20413;-51
2023/05/26 10:00:28;;;;;;;9.00;8.10;;;28.80;1.00;;;;;;5132886;27;20472;-53
2023/05/26 10:02:54;;;;;;;8.67;7.87;;;29.00;1.00;;;;;;5139807;27;20420;-53
2023/05/26 10:05:20;;;;;;;8.47;7.50;;;29.20;1.00;;;;;;5122491;27;20444;-54
2023/05/26 10:07:47;;;;;;;8.33;7.60;;;29.40;1.00;;;;;;5122180;27;20403;-53
2023/05/26 10:10:13;;;;;;;15.57;8.13;;;29.80;1.00;;;;;;5122695;27;20478;-56
2023/05/26 10:12:40;;;;;;;8.53;7.73;;;30.00;1.00;;;;;;5121695;27;20424;-53
2023/05/26 10:15:06;;;;;;;8.93;7.70;;;29.60;1.00;;;;;;5122882;27;20423;-55
2023/05/26 10:17:31;;;;;;;8.63;7.73;;;29.80;1.00;;;;;;5140582;27;20403;-56
2023/05/26 10:19:59;;;;;;;8.93;8.00;;;29.90;1.00;;;;;;5102696;28;20541;-55
2023/05/26 10:22:44;;;;;;;7.33;6.73;;;30.00;1.00;;;;;;5120514;28;20184;-57
2023/05/26 10:25:28;;;;;;;9.20;8.30;;;30.30;1.00;;;;;;5117997;28;20489;-55
2023/05/26 10:27:58;;;;;;;10.73;8.47;;;30.30;1.00;;;;;;5119894;28;20372;-55
2023/05/26 10:30:24;;;;;;;8.73;7.83;;;30.20;1.00;;;;;;5120052;28;20806;-55
2023/05/26 10:32:56;;;;;;;8.60;7.80;;;30.40;1.00;;;;;;5098620;28;20453;-50
2023/05/26 10:35:32;;;;;;;10.60;9.50;;;30.90;1.00;;;;;;5113522;28;20793;-49
2023/05/26 10:38:03;;;;;;;9.87;8.67;;;32.10;1.00;;;;;;5115149;28;20425;-53
2023/05/26 10:40:45;;;;;;;10.23;9.07;;;33.10;1.00;;;;;;5094717;28;20440;-48
2023/05/26 10:43:27;;;;;;;10.73;9.73;;;34.30;1.00;;;;;;5097122;28;20845;-49
2023/05/26 10:46:03;;;;;;;11.67;8.73;;;34.70;1.00;;;;;;5096730;28;20486;-49
2023/05/26 10:48:40;;;;;;;10.37;9.10;;;35.10;1.00;;;;;;5116171;28;20371;-51
2023/05/26 10:51:15;;;;;;;8.17;7.47;;;35.60;1.00;;;;;;5115446;28;20447;-51
2023/05/26 10:53:46;;;;;;;8.50;7.80;;;35.80;1.00;;;;;;5115011;28;20403;-51
2023/05/26 10:56:13;;;;;;;8.40;7.70;;;36.10;1.00;;;;;;5096631;28;20428;-48
2023/05/26 10:58:41;;;;;;;10.13;9.13;;;36.00;1.00;;;;;;5101465;27;20437;-50
2023/05/26 11:01:32;;;;;;;9.13;8.33;;;35.80;1.00;;;;;;5126427;27;20598;-52
2023/05/26 11:04:08;;;;;;;8.70;7.90;;;36.20;1.00;;;;;;5111233;28;20414;-48
2023/05/26 11:06:44;;;;;;;12.00;9.40;;;36.70;1.00;;;;;;5112083;28;20412;-50
2023/05/26 11:09:10;;;;;;;10.17;9.27;;;36.40;1.00;;;;;;5110408;28;20412;-50
2023/05/26 11:11:38;;;;;;;9.40;8.53;;;36.00;1.00;;;;;;5093935;28;20563;-53
2023/05/26 11:14:12;;;;;;;10.17;9.20;;;35.90;1.00;;;;;;5094760;28;20787;-53
2023/05/26 11:16:42;;;;;;;9.90;8.90;;;35.60;1.00;;;;;;5111935;28;20735;-48
2023/05/26 11:19:08;;;;;;;9.10;8.30;;;35.70;1.00;;;;;;5109444;28;20744;-48
2023/05/26 11:21:35;;;;;;;10.70;9.67;;;35.70;1.00;;;;;;5108941;28;20882;-49
2023/05/26 11:24:05;;;;;;;8.83;8.03;;;35.50;1.00;;;;;;5110603;28;20392;-52
2023/05/26 11:26:32;;;;;;;8.93;8.07;;;35.50;1.00;;;;;;5110529;28;20757;-50
2023/05/26 11:29:00;;;;;;;9.60;8.70;;;35.50;1.00;;;;;;5111767;28;20445;-50
2023/05/26 11:31:26;;;;;;;9.57;8.67;;;35.50;1.00;;;;;;5111936;28;20549;-48
2023/05/26 11:33:52;;;;;;;12.07;9.70;;;35.80;1.00;;;;;;5113020;28;20405;-48
2023/05/26 11:36:19;;;;;;;10.60;9.67;;;36.30;1.00;;;;;;5092887;28;20171;-50
2023/05/26 11:38:46;;;;;;;8.43;7.70;;;36.20;1.00;;;;;;5096216;28;20498;-50
2023/05/26 11:41:13;;;;;;;9.13;8.30;;;36.40;1.00;;;;;;5112119;28;20849;-48
2023/05/26 11:43:39;;;;;;;8.87;8.07;;;36.50;1.00;;;;;;5092457;28;20538;-52
2023/05/26 11:46:09;;;;;;;9.37;8.57;;;36.50;1.00;;;;;;5113810;28;20924;-48
2023/05/26 11:48:39;;;;;;;9.13;8.27;;;36.70;1.00;;;;;;5112066;28;20444;-50
2023/05/26 11:51:10;;;;;;;10.33;8.47;;;37.20;1.00;;;;;;5114521;28;20707;-50
2023/05/26 11:53:36;;;;;;;7.83;7.13;;;37.40;1.00;;;;;;5114597;28;20476;-51
2023/05/26 11:56:02;;;;;;;9.37;8.57;;;37.50;1.00;;;;;;5114222;28;20426;-49
2023/05/26 11:58:27;;;;;;;8.90;7.90;;;37.40;1.00;;;;;;5115652;28;20486;-50
2023/05/26 12:00:59;;;;;;;8.37;7.57;;;37.40;1.00;;;;;;5095506;28;20458;-50
2023/05/26 12:03:25;;;;;;;8.60;7.87;;;37.80;1.00;;;;;;5113272;28;20176;-49
2023/05/26 12:05:51;;;;;;;10.00;7.90;;;37.60;1.00;;;;;;5094899;28;20436;-48
2023/05/26 12:08:16;;;;;;;9.47;8.57;;;37.70;1.00;;;;;;5092969;28;20176;-49
2023/05/26 12:10:42;;;;;;;8.50;7.70;;;37.80;1.00;;;;;;5110923;28;20184;-54
2023/05/26 12:13:08;;;;;;;8.97;8.17;;;37.50;1.00;;;;;;5110192;28;20175;-51
2023/05/26 12:15:33;;;;;;;8.60;7.80;;;37.60;1.00;;;;;;5109124;28;20513;-50
2023/05/26 12:18:02;;;;;;;8.50;7.87;;;37.60;1.00;;;;;;5110344;28;20457;-52
2023/05/26 12:20:28;;;;;;;8.67;7.60;;;37.50;1.00;;;;;;5109507;28;20235;-49
2023/05/26 12:23:05;;;;;;;8.17;7.40;;;38.00;1.00;;;;;;5110043;28;20410;-51
2023/05/26 12:25:32;;;;;;;7.80;7.10;;;38.10;1.00;;;;;;5108221;28;20854;-50
2023/05/26 12:27:58;;;;;;;8.70;7.90;;;38.30;1.00;;;;;;5109435;28;20704;-51
2023/05/26 12:30:26;;;;;;;9.53;7.53;;;38.40;1.00;;;;;;5110115;28;20745;-48
2023/05/26 12:32:52;;;;;;;9.93;7.97;;;38.10;1.00;;;;;;5111756;28;20421;-49
2023/05/26 12:35:18;;;;;;;8.47;7.67;;;38.40;1.00;;;;;;5114077;28;20431;-51
2023/05/26 12:37:44;;;;;;;8.37;7.67;;;38.60;1.00;;;;;;5113851;28;20455;-48
2023/05/26 12:40:10;;;;;;;7.23;6.53;;;38.50;1.00;;;;;;5112615;28;20979;-57
2023/05/26 12:42:36;;;;;;;9.23;8.13;;;38.60;1.00;;;;;;5112936;28;20466;-49
2023/05/26 12:45:03;;;;;;;8.40;7.70;;;38.60;1.00;;;;;;5110162;28;20672;-50
2023/05/26 12:47:29;;;;;;;8.20;7.40;;;38.70;1.00;;;;;;5112209;28;20432;-50
2023/05/26 12:49:54;;;;;;;8.67;7.87;;;38.50;1.00;;;;;;5113052;28;20425;-50